CJZ5 weather

CLOSED Virden (West) Airport
Virden, Manitoba, Canada

Public forecast

Using degrees Celsius for public forecast. Weather courtesy of forecast.io.

Closest aviation weather report (METAR) to Virden (West) Airport

Closest report is Brandon Municipal Airport, 43.2 nm (79.9 km) E. Retrieved 2020/01/21 13:00 UTC (22 minutes ago):

CYBR 211300Z 26008KT 15SM SCT200 M08/M12 A2975 RMK CI3 SLP108

Closest aviation forecast (TAF) to Virden (West) Airport

Closest forecast is Brandon Municipal Airport, 43.2 nm (79.9 km) E. Retrieved 2020/01/21 12:39 UTC (43 minutes ago):

TAF CYBR 211138Z 2112/2124 24007KT P6SM SCT200 FM211600 25012KT P6SM FEW100 SCT200 RMK NXT FCST BY 211800Z